Time;durP1;ratioP1;P1;durP2;ratioP2;P2;SDS_P1;SDS_P2;PMS_P1;PMS_P2;Temp;Humidity;BMP_temperature;BMP_pressure;BME280_temperature;BME280_humidity;BME280_pressure;Samples;Min_cycle;Max_cycle;Signal;HPM_P1;HPM_P2
2022/11/06 00:00:48;;;;;;;8.13;5.30;;;6.30;99.90;;;;;;5075011;28;20877;-77
2022/11/06 00:03:15;;;;;;;5.40;5.00;;;6.30;99.90;;;;;;5077531;28;20554;-77
2022/11/06 00:08:29;;;;;;;7.10;6.40;;;6.60;99.90;;;;;;5068800;28;20854;-77
2022/11/06 00:10:56;;;;;;;6.47;5.47;;;6.70;99.90;;;;;;5072939;28;20800;-77
2022/11/06 00:13:24;;;;;;;5.60;5.00;;;6.70;99.90;;;;;;5064693;28;20491;-77
2022/11/06 00:15:52;;;;;;;6.80;6.00;;;6.70;99.90;;;;;;5074805;28;20482;-77
2022/11/06 00:18:19;;;;;;;7.13;6.53;;;6.80;99.90;;;;;;5076359;28;20459;-77
2022/11/06 00:20:46;;;;;;;6.73;5.90;;;6.80;99.90;;;;;;5077450;28;20461;-77
2022/11/06 00:23:13;;;;;;;7.03;6.33;;;6.80;99.90;;;;;;5069010;28;21287;-77
2022/11/06 00:25:41;;;;;;;5.43;5.03;;;6.80;99.90;;;;;;5069536;28;20455;-77
2022/11/06 00:28:09;;;;;;;7.17;5.90;;;6.90;99.90;;;;;;5065170;28;20575;-77
2022/11/06 00:30:36;;;;;;;9.23;6.87;;;6.90;99.90;;;;;;5074875;28;20536;-77
2022/11/06 00:33:04;;;;;;;9.30;6.37;;;6.80;99.90;;;;;;5074432;28;20538;-77
2022/11/06 00:35:31;;;;;;;7.30;6.67;;;6.80;99.90;;;;;;5074655;28;20451;-77
2022/11/06 00:37:58;;;;;;;7.80;6.47;;;6.80;99.90;;;;;;5071287;28;20527;-77
2022/11/06 00:40:25;;;;;;;7.70;6.93;;;6.70;99.90;;;;;;5074488;28;20516;-77
2022/11/06 00:42:56;;;;;;;7.87;7.17;;;6.80;99.90;;;;;;5077087;28;20494;-77
2022/11/06 00:45:24;;;;;;;7.33;6.43;;;6.80;99.90;;;;;;5076636;28;20527;-77
2022/11/06 00:47:51;;;;;;;6.60;6.00;;;6.80;99.90;;;;;;5073773;28;20490;-77
2022/11/06 00:50:20;;;;;;;5.40;4.90;;;6.80;99.90;;;;;;5080421;28;20579;-77
2022/11/06 00:52:47;;;;;;;6.40;5.80;;;6.80;99.90;;;;;;5076213;28;20474;-78
2022/11/06 00:55:13;;;;;;;5.87;5.37;;;6.80;99.90;;;;;;5075628;28;20551;-77
2022/11/06 00:57:41;;;;;;;4.80;4.47;;;6.80;99.90;;;;;;5065532;28;20558;-77
2022/11/06 01:00:10;;;;;;;5.13;4.63;;;6.80;99.90;;;;;;5067885;28;20455;-77
2022/11/06 01:02:38;;;;;;;4.70;4.30;;;6.80;99.90;;;;;;5078288;28;20462;-77
2022/11/06 01:05:05;;;;;;;5.90;5.40;;;6.70;99.90;;;;;;5064892;28;21189;-77
2022/11/06 01:07:34;;;;;;;7.53;4.83;;;6.70;99.90;;;;;;5063874;28;20857;-77
2022/11/06 01:10:01;;;;;;;5.57;5.10;;;6.70;99.90;;;;;;5068113;28;20491;-77
2022/11/06 01:12:28;;;;;;;6.10;4.70;;;6.60;99.90;;;;;;5068505;28;20442;-77
2022/11/06 01:14:55;;;;;;;5.47;4.83;;;6.60;99.90;;;;;;5075019;28;20466;-77
2022/11/06 01:17:22;;;;;;;5.70;4.30;;;6.60;99.90;;;;;;5068481;28;20549;-77
2022/11/06 01:19:49;;;;;;;5.27;4.87;;;6.50;99.90;;;;;;5069263;28;20467;-77
2022/11/06 01:22:16;;;;;;;4.53;4.07;;;6.50;99.90;;;;;;5064783;28;20463;-77
2022/11/06 01:24:44;;;;;;;4.90;4.53;;;6.50;99.90;;;;;;5069129;28;20795;-77
2022/11/06 01:27:11;;;;;;;6.07;5.47;;;6.50;99.90;;;;;;5073663;28;20914;-77
2022/11/06 01:29:38;;;;;;;7.30;5.50;;;6.30;99.90;;;;;;5063665;28;20494;-77
2022/11/06 01:32:06;;;;;;;4.93;3.83;;;6.30;99.90;;;;;;5066560;28;20463;-77
2022/11/06 01:34:33;;;;;;;6.30;5.80;;;6.10;99.90;;;;;;5066314;28;20885;-77
2022/11/06 01:37:00;;;;;;;5.23;4.73;;;5.90;99.90;;;;;;5077683;28;20477;-77
2022/11/06 01:39:27;;;;;;;7.53;5.20;;;5.80;99.90;;;;;;5071791;28;20542;-77
2022/11/06 01:41:55;;;;;;;5.27;4.73;;;5.60;99.90;;;;;;5080182;28;20450;-77
2022/11/06 01:45:17;;;;;;;5.30;4.83;;;5.50;99.90;;;;;;5067587;28;20997;-77
2022/11/06 01:47:44;;;;;;;4.37;3.97;;;5.40;99.90;;;;;;5034050;28;20550;-77
2022/11/06 01:50:13;;;;;;;5.33;4.93;;;5.30;99.90;;;;;;5065869;28;20556;-77
2022/11/06 01:52:40;;;;;;;5.87;5.13;;;5.30;99.90;;;;;;5070254;28;20532;-77
2022/11/06 01:55:12;;;;;;;5.70;5.10;;;5.30;99.90;;;;;;5065381;28;20467;-76
2022/11/06 01:57:41;;;;;;;6.80;5.00;;;5.20;99.90;;;;;;5062376;28;20541;-77
2022/11/06 02:00:09;;;;;;;5.10;4.70;;;5.10;99.90;;;;;;5075688;28;20460;-77
2022/11/06 02:02:38;;;;;;;5.80;5.30;;;5.10;99.90;;;;;;5070099;28;20462;-77
2022/11/06 02:05:05;;;;;;;6.80;5.03;;;5.10;99.90;;;;;;5077937;28;20458;-77
2022/11/06 02:07:33;;;;;;;7.90;5.80;;;5.00;99.90;;;;;;5068230;28;21122;-77
2022/11/06 02:10:00;;;;;;;6.60;5.40;;;5.10;99.90;;;;;;5068906;28;20545;-77
2022/11/06 02:12:48;;;;;;;7.83;5.67;;;5.10;99.90;;;;;;5066132;28;20498;-77
2022/11/06 02:15:25;;;;;;;6.87;6.13;;;5.10;99.90;;;;;;5074245;28;20493;-77
2022/11/06 02:18:04;;;;;;;7.70;6.70;;;5.30;99.90;;;;;;5070542;28;20462;-78
2022/11/06 02:20:36;;;;;;;7.00;6.33;;;5.30;99.90;;;;;;5068239;28;20508;-77
2022/11/06 02:23:41;;;;;;;8.40;6.97;;;5.20;99.90;;;;;;5063405;28;21161;-77
2022/11/06 02:26:27;;;;;;;9.63;6.53;;;5.10;99.90;;;;;;5047295;28;20446;-77
2022/11/06 02:29:00;;;;;;;8.60;7.40;;;5.00;99.90;;;;;;5075847;28;20570;-77
2022/11/06 02:31:32;;;;;;;6.10;5.03;;;5.10;99.90;;;;;;5075756;28;20967;-77
2022/11/06 02:34:04;;;;;;;7.03;6.37;;;5.10;99.90;;;;;;5076794;28;20495;-77
2022/11/06 02:36:35;;;;;;;5.90;5.30;;;5.10;99.90;;;;;;5068988;28;20458;-77
2022/11/06 02:39:07;;;;;;;8.30;6.97;;;5.10;99.90;;;;;;5063783;28;20966;-77
2022/11/06 02:41:38;;;;;;;6.87;5.90;;;5.00;99.90;;;;;;5079342;28;20599;-78
2022/11/06 02:44:12;;;;;;;7.10;6.33;;;4.90;99.90;;;;;;5073665;28;20496;-77
2022/11/06 02:46:43;;;;;;;7.00;5.97;;;4.80;99.90;;;;;;5078569;28;20519;-77
2022/11/06 02:49:15;;;;;;;7.70;5.90;;;4.80;99.90;;;;;;5069405;28;20463;-77
2022/11/06 02:51:47;;;;;;;6.83;5.67;;;4.80;99.90;;;;;;5072516;28;21458;-77
2022/11/06 02:54:17;;;;;;;7.57;6.00;;;4.70;99.90;;;;;;5082186;28;20462;-77
2022/11/06 02:56:49;;;;;;;8.40;7.13;;;4.70;99.90;;;;;;5079946;28;20470;-77
2022/11/06 02:59:23;;;;;;;7.17;6.47;;;4.80;99.90;;;;;;5083600;28;20471;-77
2022/11/06 03:01:55;;;;;;;11.07;6.67;;;4.80;99.90;;;;;;5084075;28;20466;-77
2022/11/06 03:04:26;;;;;;;11.00;7.80;;;4.80;99.90;;;;;;5088250;28;20496;-77
2022/11/06 03:06:59;;;;;;;8.50;6.73;;;4.80;99.90;;;;;;5087046;28;20455;-77
2022/11/06 03:09:31;;;;;;;9.07;8.17;;;4.80;99.90;;;;;;5076163;28;20982;-77
2022/11/06 03:12:04;;;;;;;7.93;6.87;;;4.80;99.90;;;;;;5087139;28;20450;-77
2022/11/06 03:14:38;;;;;;;7.47;6.43;;;4.80;99.90;;;;;;5071432;28;20493;-77
2022/11/06 03:17:11;;;;;;;9.20;7.67;;;4.70;99.90;;;;;;5080141;28;20463;-77
2022/11/06 03:19:48;;;;;;;6.40;5.80;;;4.70;99.90;;;;;;5075800;28;20535;-77
2022/11/06 03:22:23;;;;;;;6.70;6.00;;;4.70;99.90;;;;;;5081291;28;20462;-77
2022/11/06 03:24:58;;;;;;;8.60;7.13;;;4.60;99.90;;;;;;5079708;28;20524;-77
2022/11/06 03:27:33;;;;;;;8.17;6.73;;;4.60;99.90;;;;;;5077804;28;20825;-78
2022/11/06 03:30:05;;;;;;;9.50;6.43;;;4.40;99.90;;;;;;5075938;28;20568;-77
2022/11/06 03:32:37;;;;;;;8.03;6.23;;;4.40;99.90;;;;;;5077884;28;20512;-77
2022/11/06 03:35:09;;;;;;;7.60;6.27;;;4.40;99.90;;;;;;5079118;28;20455;-77
2022/11/06 03:37:40;;;;;;;7.67;6.50;;;4.30;99.90;;;;;;5083650;28;20486;-77
2022/11/06 03:40:13;;;;;;;8.67;7.20;;;4.30;99.90;;;;;;5078092;28;20455;-77
2022/11/06 03:42:43;;;;;;;8.50;7.27;;;4.20;99.90;;;;;;5067977;28;21175;-76
2022/11/06 03:45:16;;;;;;;7.60;6.80;;;4.20;99.90;;;;;;5071295;28;20524;-76
2022/11/06 03:47:46;;;;;;;6.73;5.50;;;4.10;99.90;;;;;;5069576;28;20959;-76
2022/11/06 03:50:18;;;;;;;7.97;7.03;;;4.10;99.90;;;;;;5080077;28;20564;-76
2022/11/06 03:52:53;;;;;;;10.67;6.97;;;4.20;99.90;;;;;;5075154;28;20520;-76
2022/11/06 03:55:24;;;;;;;9.87;7.10;;;4.20;99.90;;;;;;5077489;28;20468;-76
2022/11/06 03:57:54;;;;;;;8.73;6.07;;;4.20;99.90;;;;;;5080870;28;20466;-76
2022/11/06 04:00:23;;;;;;;9.53;7.27;;;4.30;99.90;;;;;;5070035;28;20509;-76
2022/11/06 04:03:03;;;;;;;7.57;6.77;;;4.30;99.90;;;;;;5081066;28;21020;-76
2022/11/06 04:05:34;;;;;;;8.40;7.33;;;4.30;99.90;;;;;;5073453;28;20462;-76
2022/11/06 04:16:25;;;;;;;9.20;8.23;;;4.50;99.90;;;;;;5073938;28;20457;-76
2022/11/06 04:18:52;;;;;;;11.53;8.67;;;4.60;99.90;;;;;;5081115;28;20923;-76
2022/11/06 04:21:29;;;;;;;9.90;7.63;;;4.90;99.90;;;;;;5082570;28;21027;-76
2022/11/06 04:27:12;;;;;;;10.97;8.13;;;5.10;99.90;;;;;;5065491;28;20451;-76
2022/11/06 04:29:54;;;;;;;14.03;8.77;;;5.10;99.90;;;;;;5068283;28;20460;-76
2022/11/06 04:32:32;;;;;;;11.77;9.03;;;5.20;99.90;;;;;;5069483;28;20526;-76
2022/11/06 04:35:05;;;;;;;12.33;8.20;;;5.30;99.90;;;;;;5083265;28;20470;-76
2022/11/06 04:37:40;;;;;;;13.10;8.10;;;5.30;99.90;;;;;;5083312;28;20459;-77
2022/11/06 04:40:11;;;;;;;10.53;8.50;;;5.30;99.90;;;;;;5080347;28;20495;-77
2022/11/06 04:42:44;;;;;;;8.30;7.43;;;5.30;99.90;;;;;;5076742;28;20920;-77
2022/11/06 04:45:17;;;;;;;15.87;10.70;;;5.20;99.90;;;;;;5082481;28;20459;-77
2022/11/06 04:47:46;;;;;;;14.90;10.70;;;5.20;99.90;;;;;;5080556;28;20491;-76
2022/11/06 04:50:15;;;;;;;17.60;10.30;;;5.20;99.90;;;;;;5075386;28;20992;-76
2022/11/06 04:52:44;;;;;;;14.17;11.03;;;5.10;99.90;;;;;;5065070;28;20459;-76
2022/11/06 04:55:11;;;;;;;18.20;11.43;;;5.00;99.90;;;;;;5076292;28;20539;-76
2022/11/06 04:57:38;;;;;;;23.37;12.67;;;5.00;99.90;;;;;;5074969;28;20543;-76
2022/11/06 05:00:06;;;;;;;26.20;13.10;;;4.90;99.90;;;;;;5077741;28;20945;-76
2022/11/06 05:02:33;;;;;;;36.60;16.07;;;4.80;99.90;;;;;;5081603;28;20443;-77
2022/11/06 05:05:01;;;;;;;31.50;14.50;;;4.80;99.90;;;;;;5083880;28;20463;-76
2022/11/06 05:07:29;;;;;;;28.83;13.37;;;4.80;99.90;;;;;;5084161;28;20459;-76
2022/11/06 05:09:56;;;;;;;32.60;14.30;;;4.80;99.90;;;;;;5078799;28;20491;-77
2022/11/06 05:12:23;;;;;;;29.97;15.03;;;4.80;99.90;;;;;;5083663;28;20500;-77
2022/11/06 05:14:50;;;;;;;35.20;14.40;;;4.90;99.90;;;;;;5082998;28;20944;-76
2022/11/06 05:17:16;;;;;;;28.47;15.20;;;5.00;99.90;;;;;;5075399;28;20495;-76
2022/11/06 05:19:43;;;;;;;37.93;14.50;;;5.00;99.90;;;;;;5079854;28;20476;-76
2022/11/06 05:24:56;;;;;;;19.67;10.57;;;5.20;99.90;;;;;;5079085;28;20568;-77
2022/11/06 05:27:23;;;;;;;19.80;11.00;;;5.10;99.90;;;;;;5083784;28;20447;-77
2022/11/06 05:29:50;;;;;;;17.20;9.60;;;5.20;99.90;;;;;;5077507;28;20445;-77
2022/11/06 05:32:17;;;;;;;18.73;12.03;;;5.30;99.90;;;;;;5075234;28;21092;-77
2022/11/06 05:34:44;;;;;;;18.07;11.10;;;5.20;99.90;;;;;;5074617;28;20467;-77
2022/11/06 05:37:13;;;;;;;30.53;13.27;;;5.20;99.90;;;;;;5074825;28;20483;-76
2022/11/06 05:39:40;;;;;;;25.90;13.50;;;5.20;99.90;;;;;;5072646;28;20518;-76
2022/11/06 05:42:06;;;;;;;20.27;13.00;;;5.20;99.90;;;;;;5071764;28;20501;-76
2022/11/06 05:44:33;;;;;;;20.60;13.60;;;5.20;99.90;;;;;;5066439;28;20606;-77
2022/11/06 05:47:00;;;;;;;27.27;13.87;;;5.20;99.90;;;;;;5073386;28;20940;-76
2022/11/06 05:49:27;;;;;;;23.20;12.80;;;5.20;99.90;;;;;;5070925;28;20459;-76
2022/11/06 05:51:54;;;;;;;26.80;13.00;;;5.20;99.90;;;;;;5071762;28;20552;-76
2022/11/06 05:54:23;;;;;;;20.37;11.47;;;5.10;99.90;;;;;;5071215;28;20466;-76
2022/11/06 05:56:50;;;;;;;22.40;10.43;;;4.90;99.90;;;;;;5074934;28;20532;-76
2022/11/06 05:59:16;;;;;;;13.63;8.63;;;4.70;99.90;;;;;;5070452;28;20460;-76
2022/11/06 06:01:43;;;;;;;11.63;8.33;;;4.50;99.90;;;;;;5081220;28;20454;-76
2022/11/06 06:04:10;;;;;;;9.50;6.70;;;4.30;99.90;;;;;;5080887;28;20525;-76
2022/11/06 06:06:38;;;;;;;14.97;9.50;;;4.20;99.90;;;;;;5074216;28;20522;-76
2022/11/06 06:09:05;;;;;;;18.00;8.97;;;4.00;99.90;;;;;;5075196;28;20525;-76
2022/11/06 06:11:33;;;;;;;15.40;9.50;;;4.00;99.90;;;;;;5069404;28;21048;-76
2022/11/06 06:14:00;;;;;;;16.60;10.77;;;4.00;99.90;;;;;;5071712;28;20466;-77
2022/11/06 06:16:27;;;;;;;38.00;12.43;;;4.10;99.90;;;;;;5069949;28;20466;-76
2022/11/06 06:18:54;;;;;;;25.77;13.57;;;4.20;99.90;;;;;;5080243;28;20470;-77
2022/11/06 06:21:21;;;;;;;36.87;17.57;;;4.20;99.90;;;;;;5072474;28;20459;-76
2022/11/06 06:23:48;;;;;;;34.30;15.83;;;4.40;99.90;;;;;;5067756;28;20539;-76
2022/11/06 06:26:15;;;;;;;17.83;10.00;;;4.50;99.90;;;;;;5078350;28;21362;-77
2022/11/06 06:28:44;;;;;;;13.97;8.43;;;4.50;99.90;;;;;;5068413;28;20574;-76
2022/11/06 06:31:11;;;;;;;13.53;8.33;;;4.40;99.90;;;;;;5072194;28;20518;-76
2022/11/06 06:33:38;;;;;;;8.63;7.50;;;4.40;99.90;;;;;;5062593;28;20443;-76
2022/11/06 06:36:06;;;;;;;9.57;7.40;;;4.40;99.90;;;;;;5070327;28;20501;-76
2022/11/06 06:38:33;;;;;;;11.60;7.87;;;4.40;99.90;;;;;;5065173;28;20463;-76
2022/11/06 06:41:02;;;;;;;10.70;7.63;;;4.40;99.90;;;;;;5072112;28;20808;-76
2022/11/06 06:43:29;;;;;;;10.60;7.87;;;4.30;99.90;;;;;;5078702;28;20467;-76
2022/11/06 06:45:59;;;;;;;10.07;7.60;;;4.40;99.90;;;;;;5074776;28;20464;-76
2022/11/06 06:48:27;;;;;;;8.57;7.70;;;4.40;99.90;;;;;;5068119;28;20470;-76
2022/11/06 06:50:57;;;;;;;13.77;9.23;;;4.50;99.90;;;;;;5070994;28;20510;-76
2022/11/06 06:53:24;;;;;;;10.30;6.67;;;4.60;99.90;;;;;;5072126;28;20459;-76
2022/11/06 06:55:51;;;;;;;9.97;8.60;;;4.60;99.90;;;;;;5077006;28;20524;-76
2022/11/06 06:58:18;;;;;;;9.50;7.77;;;4.70;99.90;;;;;;5068264;28;21040;-76
2022/11/06 07:00:45;;;;;;;11.80;8.57;;;4.70;99.90;;;;;;5067090;28;20456;-77
2022/11/06 07:03:13;;;;;;;11.53;8.40;;;4.90;99.90;;;;;;5063745;28;20465;-77
2022/11/06 07:05:40;;;;;;;10.27;7.67;;;5.20;99.90;;;;;;5061509;28;20572;-77
2022/11/06 07:08:07;;;;;;;10.13;8.23;;;5.40;99.90;;;;;;5064052;28;20455;-77
2022/11/06 07:10:34;;;;;;;10.13;7.33;;;5.50;99.90;;;;;;5065007;28;20506;-77
2022/11/06 07:13:02;;;;;;;8.13;7.13;;;5.80;99.90;;;;;;5062661;28;20502;-77
2022/11/06 07:15:29;;;;;;;9.90;7.60;;;5.80;99.90;;;;;;5066180;28;20475;-77
2022/11/06 07:18:00;;;;;;;7.57;6.07;;;5.60;99.90;;;;;;5061560;28;20470;-77
2022/11/06 07:20:29;;;;;;;12.63;7.17;;;5.90;99.90;;;;;;5063910;28;20530;-77
2022/11/06 07:22:57;;;;;;;7.47;6.10;;;5.90;99.90;;;;;;5061984;28;20874;-77
2022/11/06 07:25:24;;;;;;;7.87;6.80;;;6.00;99.90;;;;;;5066996;28;20459;-77
2022/11/06 07:27:51;;;;;;;8.40;6.10;;;5.90;99.90;;;;;;5062929;28;20563;-78
2022/11/06 07:30:18;;;;;;;8.67;6.80;;;6.10;99.90;;;;;;5066402;28;20525;-78
2022/11/06 07:32:45;;;;;;;8.43;7.13;;;6.30;99.90;;;;;;5067760;28;20483;-77
2022/11/06 07:35:12;;;;;;;9.73;8.20;;;6.30;99.90;;;;;;5067798;28;20461;-78
2022/11/06 07:37:40;;;;;;;11.83;9.50;;;6.40;99.90;;;;;;5064371;28;20524;-78
2022/11/06 07:40:09;;;;;;;10.40;7.60;;;6.50;99.90;;;;;;5064552;28;20514;-78
2022/11/06 07:42:36;;;;;;;7.90;5.90;;;6.70;99.90;;;;;;5066029;28;21190;-78
2022/11/06 07:45:03;;;;;;;7.20;5.90;;;6.80;99.90;;;;;;5071247;28;20458;-77
2022/11/06 07:47:30;;;;;;;8.83;6.07;;;6.70;99.90;;;;;;5069228;28;20465;-78
2022/11/06 07:49:57;;;;;;;8.93;6.80;;;6.70;99.90;;;;;;5062074;28;21529;-78
2022/11/06 07:52:24;;;;;;;11.00;7.43;;;6.80;99.90;;;;;;5063788;28;20518;-77
2022/11/06 07:54:53;;;;;;;8.30;6.43;;;6.70;99.90;;;;;;5069293;28;20546;-78
2022/11/06 07:57:20;;;;;;;10.33;6.53;;;6.80;99.90;;;;;;5074323;28;20547;-77
2022/11/06 07:59:47;;;;;;;6.83;6.13;;;6.80;99.90;;;;;;5066212;28;20463;-78
2022/11/06 08:02:14;;;;;;;7.63;6.47;;;6.60;99.90;;;;;;5071644;28;20528;-78
2022/11/06 08:04:41;;;;;;;8.70;7.80;;;6.60;99.90;;;;;;5068530;28;20459;-77
2022/11/06 08:07:08;;;;;;;12.77;8.80;;;6.50;99.90;;;;;;5064459;28;20548;-77
2022/11/06 08:09:36;;;;;;;11.90;8.67;;;6.60;99.90;;;;;;5066009;28;20514;-77
2022/11/06 08:12:04;;;;;;;10.47;8.00;;;6.60;99.90;;;;;;5065673;28;20493;-77
2022/11/06 08:14:32;;;;;;;13.33;9.97;;;6.70;99.90;;;;;;5065170;28;21103;-77
2022/11/06 08:16:58;;;;;;;11.23;9.40;;;6.60;99.90;;;;;;5062959;28;20469;-78
2022/11/06 08:19:25;;;;;;;9.67;8.70;;;6.50;99.90;;;;;;5070789;28;20531;-78
2022/11/06 08:21:52;;;;;;;14.87;8.60;;;6.50;99.90;;;;;;5063855;28;22170;-78
2022/11/06 08:24:19;;;;;;;12.70;9.40;;;6.40;99.90;;;;;;5075450;28;20522;-77
2022/11/06 08:26:46;;;;;;;14.40;10.60;;;6.60;99.90;;;;;;5068371;28;20539;-77
2022/11/06 08:29:15;;;;;;;15.70;9.67;;;6.60;99.90;;;;;;5065720;28;20928;-77
2022/11/06 08:31:42;;;;;;;15.20;10.33;;;6.90;99.90;;;;;;5067382;28;20549;-78
2022/11/06 08:34:09;;;;;;;13.57;10.73;;;6.90;99.90;;;;;;5071647;28;20546;-78
2022/11/06 08:36:39;;;;;;;15.77;11.20;;;7.00;99.90;;;;;;5068636;28;20942;-78
2022/11/06 08:39:05;;;;;;;14.70;11.00;;;7.20;99.90;;;;;;5069369;28;20531;-78
2022/11/06 08:41:33;;;;;;;14.30;11.10;;;7.20;99.90;;;;;;5066024;28;20477;-78
2022/11/06 08:44:00;;;;;;;14.77;10.90;;;7.10;99.90;;;;;;5077883;28;20451;-78
2022/11/06 08:46:28;;;;;;;15.27;10.67;;;7.20;99.90;;;;;;5073070;28;20554;-78
2022/11/06 08:48:55;;;;;;;15.67;11.10;;;7.30;99.90;;;;;;5073014;28;20546;-79
2022/11/06 08:51:22;;;;;;;12.90;9.13;;;7.40;99.90;;;;;;5070893;28;20574;-78
2022/11/06 08:53:49;;;;;;;15.60;9.90;;;7.40;99.90;;;;;;5066871;28;20464;-78
2022/11/06 08:56:16;;;;;;;16.90;11.40;;;7.40;99.90;;;;;;5070856;28;20469;-78
2022/11/06 08:58:43;;;;;;;13.93;10.23;;;7.40;99.90;;;;;;5070136;28;20564;-78
2022/11/06 09:01:10;;;;;;;14.87;11.40;;;7.40;99.90;;;;;;5064838;28;20491;-78
2022/11/06 09:03:38;;;;;;;11.40;8.90;;;7.40;99.90;;;;;;5079630;28;20460;-78
2022/11/06 09:06:07;;;;;;;15.03;9.67;;;7.30;99.90;;;;;;5065776;28;20443;-78
2022/11/06 09:08:34;;;;;;;17.40;10.93;;;7.40;99.90;;;;;;5071895;28;20459;-79
2022/11/06 09:11:06;;;;;;;15.10;10.87;;;7.50;99.90;;;;;;5073024;28;20487;-78
2022/11/06 09:13:33;;;;;;;15.40;10.87;;;7.60;99.90;;;;;;5078245;28;20854;-78
2022/11/06 09:16:00;;;;;;;10.60;9.37;;;7.60;99.90;;;;;;5079213;28;20962;-78
2022/11/06 09:18:27;;;;;;;14.33;8.70;;;7.40;99.90;;;;;;5079939;28;20838;-78
2022/11/06 09:20:56;;;;;;;12.30;9.73;;;7.40;99.90;;;;;;5075777;28;20945;-76
2022/11/06 09:23:24;;;;;;;14.57;9.77;;;7.50;99.90;;;;;;5066393;28;20846;-76
2022/11/06 09:25:51;;;;;;;13.70;10.10;;;7.50;99.90;;;;;;5067841;28;21301;-76
2022/11/06 09:28:18;;;;;;;15.93;10.47;;;7.70;99.90;;;;;;5064390;28;21004;-77
2022/11/06 09:30:45;;;;;;;17.47;11.63;;;7.60;99.90;;;;;;5064441;28;20584;-77
2022/11/06 09:33:12;;;;;;;16.23;10.27;;;7.80;99.90;;;;;;5067950;28;20499;-77
2022/11/06 09:35:39;;;;;;;14.60;11.53;;;7.90;99.90;;;;;;5071972;28;20532;-77
2022/11/06 09:38:10;;;;;;;15.17;11.27;;;7.90;99.90;;;;;;5071166;28;22026;-76
2022/11/06 09:40:39;;;;;;;16.53;12.77;;;8.00;99.90;;;;;;5064548;28;20458;-77
2022/11/06 09:43:23;;;;;;;15.50;11.70;;;8.00;99.90;;;;;;5065206;28;20935;-77
2022/11/06 09:45:51;;;;;;;11.63;9.60;;;8.00;99.90;;;;;;5062539;28;20466;-77
2022/11/06 09:48:24;;;;;;;15.67;10.90;;;8.00;99.90;;;;;;5066376;28;20539;-76
2022/11/06 09:50:56;;;;;;;15.13;10.93;;;8.10;99.90;;;;;;5068972;28;20462;-77
2022/11/06 09:53:31;;;;;;;18.13;12.50;;;8.00;99.90;;;;;;5074983;28;20528;-76
2022/11/06 09:56:00;;;;;;;17.63;11.60;;;8.10;99.90;;;;;;5070078;28;20467;-78
2022/11/06 09:58:32;;;;;;;14.50;11.07;;;8.10;99.90;;;;;;5072983;28;21198;-78
2022/11/06 10:01:03;;;;;;;15.37;11.10;;;8.00;99.90;;;;;;5066089;28;20463;-78
2022/11/06 10:03:40;;;;;;;17.97;12.50;;;8.10;99.90;;;;;;5068234;28;20556;-77
2022/11/06 10:06:07;;;;;;;17.97;11.90;;;8.30;99.90;;;;;;5069570;28;20485;-77
2022/11/06 10:08:36;;;;;;;19.70;12.63;;;8.30;99.90;;;;;;5074397;28;20488;-77
2022/11/06 10:11:07;;;;;;;16.60;12.20;;;8.20;99.90;;;;;;5068862;28;20494;-77
2022/11/06 10:13:51;;;;;;;14.30;11.60;;;8.30;99.90;;;;;;5071899;28;20582;-77
2022/11/06 10:16:30;;;;;;;15.77;12.43;;;8.30;99.90;;;;;;5072404;28;20536;-77
2022/11/06 10:19:07;;;;;;;16.17;11.67;;;8.20;99.90;;;;;;5068822;28;20466;-77
2022/11/06 10:21:47;;;;;;;21.10;13.10;;;8.20;99.90;;;;;;5077887;28;20482;-77
2022/11/06 10:24:23;;;;;;;15.40;11.83;;;8.30;99.90;;;;;;5073828;28;20991;-77
2022/11/06 10:26:54;;;;;;;15.87;11.30;;;8.40;99.90;;;;;;5077175;28;20990;-77
2022/11/06 10:29:45;;;;;;;17.40;12.53;;;8.30;99.90;;;;;;5076201;28;20529;-77
2022/11/06 10:32:31;;;;;;;16.73;11.13;;;8.30;99.90;;;;;;5068534;28;20526;-77
2022/11/06 10:35:03;;;;;;;13.10;11.27;;;8.30;99.90;;;;;;5071284;28;20486;-77
2022/11/06 10:37:39;;;;;;;57.70;39.70;;;8.40;99.90;;;;;;5074912;28;20462;-77
2022/11/06 10:40:17;;;;;;;18.97;13.23;;;8.90;99.90;;;;;;5062815;28;20628;-77
2022/11/06 10:42:49;;;;;;;16.10;10.90;;;8.80;99.90;;;;;;5072284;28;20459;-77
2022/11/06 10:45:18;;;;;;;15.60;10.87;;;8.80;99.90;;;;;;5069064;28;20570;-77
2022/11/06 10:47:52;;;;;;;14.47;11.27;;;8.50;99.90;;;;;;5064159;28;20574;-77
2022/11/06 10:50:19;;;;;;;19.40;15.23;;;8.60;99.90;;;;;;5068880;28;20540;-76
2022/11/06 10:52:55;;;;;;;17.40;13.67;;;8.80;99.90;;;;;;5065650;28;21306;-77
2022/11/06 10:55:47;;;;;;;18.13;14.63;;;9.10;99.90;;;;;;5070994;28;20787;-77
2022/11/06 10:58:17;;;;;;;13.47;10.53;;;9.20;99.90;;;;;;5071401;28;20490;-77
2022/11/06 11:00:45;;;;;;;15.60;12.20;;;8.70;99.90;;;;;;5074011;28;20546;-77
2022/11/06 11:03:21;;;;;;;18.27;13.60;;;8.60;99.90;;;;;;5079364;28;20536;-77
2022/11/06 11:05:48;;;;;;;25.27;12.33;;;8.50;99.90;;;;;;5069023;28;20508;-76
2022/11/06 11:08:40;;;;;;;12.53;11.17;;;8.20;99.90;;;;;;5070626;28;20516;-76
2022/11/06 11:11:19;;;;;;;13.93;11.37;;;8.10;99.90;;;;;;5071611;28;20520;-77
2022/11/06 11:13:47;;;;;;;16.07;11.60;;;8.00;99.90;;;;;;5066917;28;20491;-77
2022/11/06 11:16:17;;;;;;;16.13;12.07;;;8.00;99.90;;;;;;5072526;28;20600;-77
2022/11/06 11:18:45;;;;;;;17.90;12.50;;;8.10;99.90;;;;;;5082581;28;20484;-76
2022/11/06 11:21:22;;;;;;;15.57;13.23;;;8.10;99.90;;;;;;5073009;28;20787;-77
2022/11/06 11:24:06;;;;;;;14.23;11.23;;;8.30;99.90;;;;;;5070624;28;20527;-77
2022/11/06 11:26:38;;;;;;;16.03;12.43;;;8.40;99.90;;;;;;5070152;28;20503;-77
2022/11/06 11:29:14;;;;;;;14.53;11.70;;;8.50;99.90;;;;;;5072611;28;20482;-77
2022/11/06 11:31:46;;;;;;;13.90;11.50;;;8.90;99.90;;;;;;5070715;28;20873;-77
2022/11/06 11:34:18;;;;;;;13.47;10.53;;;8.90;99.90;;;;;;5074516;28;21172;-77
2022/11/06 11:36:54;;;;;;;12.07;10.27;;;9.10;99.90;;;;;;5082024;28;20482;-77
2022/11/06 11:39:25;;;;;;;13.90;11.60;;;9.20;99.90;;;;;;5076990;28;20493;-77
2022/11/06 11:41:53;;;;;;;12.83;11.43;;;9.20;99.90;;;;;;5075732;28;20462;-77
2022/11/06 11:44:21;;;;;;;12.03;9.90;;;9.20;99.90;;;;;;5077891;28;20446;-77
2022/11/06 11:46:50;;;;;;;15.70;10.60;;;9.20;99.90;;;;;;5077656;28;20536;-78
2022/11/06 11:49:29;;;;;;;12.43;10.87;;;9.30;99.90;;;;;;5073074;28;20471;-77
2022/11/06 11:51:57;;;;;;;11.20;9.53;;;9.30;99.90;;;;;;5080748;28;20482;-77
2022/11/06 11:54:28;;;;;;;13.10;10.23;;;9.40;99.90;;;;;;5071686;28;20506;-77
2022/11/06 11:56:58;;;;;;;11.87;8.90;;;9.60;99.90;;;;;;5073666;28;20455;-77
2022/11/06 11:59:29;;;;;;;10.97;8.87;;;9.50;99.90;;;;;;5071966;28;20463;-77
2022/11/06 12:02:01;;;;;;;11.97;10.73;;;9.50;99.90;;;;;;5077605;28;20538;-77
2022/11/06 12:04:31;;;;;;;12.77;10.13;;;9.60;99.90;;;;;;5073110;28;20459;-77
2022/11/06 12:07:01;;;;;;;12.93;9.83;;;9.60;99.90;;;;;;5069527;28;20455;-77
2022/11/06 12:09:31;;;;;;;11.70;10.07;;;9.70;99.90;;;;;;5074904;28;20456;-77
2022/11/06 12:12:02;;;;;;;12.80;10.63;;;9.70;99.90;;;;;;5071533;28;20512;-77
2022/11/06 12:14:36;;;;;;;12.60;9.43;;;9.80;99.90;;;;;;5067612;28;20456;-76
2022/11/06 12:17:19;;;;;;;9.77;8.80;;;10.10;99.90;;;;;;5066021;28;20463;-76
2022/11/06 12:19:52;;;;;;;12.27;8.90;;;10.20;99.90;;;;;;5066213;28;20583;-77
2022/11/06 12:22:26;;;;;;;10.37;8.43;;;10.30;99.90;;;;;;5062668;28;22083;-75
2022/11/06 12:24:56;;;;;;;10.73;8.90;;;10.40;99.90;;;;;;5059267;28;21351;-74
2022/11/06 12:27:28;;;;;;;10.07;8.17;;;10.30;99.90;;;;;;5073507;28;21015;-75
2022/11/06 12:30:04;;;;;;;10.00;8.10;;;10.40;99.90;;;;;;5066003;28;20532;-75
2022/11/06 12:32:44;;;;;;;10.70;9.60;;;10.40;99.90;;;;;;5070496;28;20579;-74
2022/11/06 12:35:20;;;;;;;12.00;8.23;;;10.40;99.90;;;;;;5069508;28;20470;-74
2022/11/06 12:38:05;;;;;;;9.70;7.93;;;10.30;99.90;;;;;;5070153;28;20462;-74
2022/11/06 12:40:37;;;;;;;10.00;8.67;;;10.30;99.90;;;;;;5066319;28;21142;-75
2022/11/06 12:43:14;;;;;;;10.30;7.67;;;10.40;99.90;;;;;;5075835;28;20452;-75
2022/11/06 12:45:57;;;;;;;9.63;8.07;;;10.40;99.90;;;;;;5071840;28;20490;-75
2022/11/06 12:48:46;;;;;;;12.83;8.17;;;10.40;99.90;;;;;;5071823;28;20992;-77
2022/11/06 12:51:20;;;;;;;9.47;7.87;;;10.40;99.90;;;;;;5070234;28;20463;-77
2022/11/06 12:54:03;;;;;;;8.87;7.37;;;10.50;99.90;;;;;;5075024;28;20965;-75
2022/11/06 12:56:42;;;;;;;9.53;8.60;;;10.60;99.90;;;;;;5068491;28;20972;-74
2022/11/06 12:59:22;;;;;;;8.70;7.80;;;10.60;99.90;;;;;;5062557;28;20943;-75
2022/11/06 13:01:58;;;;;;;9.00;8.13;;;10.70;99.90;;;;;;5070800;28;20471;-75
2022/11/06 13:04:41;;;;;;;8.97;8.00;;;10.70;99.90;;;;;;5075928;28;20518;-75
2022/11/06 13:07:30;;;;;;;8.83;7.93;;;10.70;99.90;;;;;;5067852;28;20467;-75
2022/11/06 13:10:20;;;;;;;7.77;7.07;;;10.70;99.90;;;;;;5073684;28;20505;-75
2022/11/06 13:12:58;;;;;;;7.97;6.30;;;10.70;99.90;;;;;;5073782;28;20604;-75
2022/11/06 13:15:32;;;;;;;8.87;7.53;;;10.50;99.90;;;;;;5081210;28;20470;-75
2022/11/06 13:18:07;;;;;;;6.20;5.60;;;10.50;99.90;;;;;;5068062;28;20559;-75
2022/11/06 13:20:42;;;;;;;6.60;6.00;;;10.50;99.90;;;;;;5067910;28;20540;-74
2022/11/06 13:23:15;;;;;;;6.70;5.37;;;10.50;99.90;;;;;;5075990;28;21302;-74